sensor_id;sensor_type;location;lat;lon;timestamp;P1;durP1;ratioP1;P2;durP2;ratioP2
12425;SDS011;6277;49.824;9.562;2023-12-20T00:02:15;0.73;;;0.60;;
12425;SDS011;6277;49.824;9.562;2023-12-20T00:04:41;0.75;;;0.60;;
12425;SDS011;6277;49.824;9.562;2023-12-20T00:07:07;0.77;;;0.50;;
12425;SDS011;6277;49.824;9.562;2023-12-20T00:09:32;0.52;;;0.50;;
12425;SDS011;6277;49.824;9.562;2023-12-20T00:11:58;0.75;;;0.50;;
12425;SDS011;6277;49.824;9.562;2023-12-20T00:14:23;0.47;;;0.43;;
12425;SDS011;6277;49.824;9.562;2023-12-20T00:16:49;1.05;;;0.50;;
12425;SDS011;6277;49.824;9.562;2023-12-20T00:19:14;0.88;;;0.40;;
12425;SDS011;6277;49.824;9.562;2023-12-20T00:21:40;0.95;;;0.45;;
12425;SDS011;6277;49.824;9.562;2023-12-20T00:24:06;0.30;;;0.30;;
12425;SDS011;6277;49.824;9.562;2023-12-20T00:26:31;0.30;;;0.30;;
12425;SDS011;6277;49.824;9.562;2023-12-20T00:28:57;0.30;;;0.30;;
12425;SDS011;6277;49.824;9.562;2023-12-20T00:31:22;0.28;;;0.22;;
12425;SDS011;6277;49.824;9.562;2023-12-20T00:33:48;0.20;;;0.20;;
12425;SDS011;6277;49.824;9.562;2023-12-20T00:36:13;0.35;;;0.20;;
12425;SDS011;6277;49.824;9.562;2023-12-20T00:38:39;0.40;;;0.25;;
12425;SDS011;6277;49.824;9.562;2023-12-20T00:41:04;0.20;;;0.20;;
12425;SDS011;6277;49.824;9.562;2023-12-20T00:43:30;0.28;;;0.20;;
12425;SDS011;6277;49.824;9.562;2023-12-20T00:45:55;0.30;;;0.30;;
12425;SDS011;6277;49.824;9.562;2023-12-20T00:48:21;0.20;;;0.20;;
12425;SDS011;6277;49.824;9.562;2023-12-20T00:50:46;0.25;;;0.10;;
12425;SDS011;6277;49.824;9.562;2023-12-20T00:53:12;0.40;;;0.30;;
12425;SDS011;6277;49.824;9.562;2023-12-20T00:55:37;0.32;;;0.20;;
12425;SDS011;6277;49.824;9.562;2023-12-20T00:58:03;0.20;;;0.20;;
12425;SDS011;6277;49.824;9.562;2023-12-20T01:00:28;0.30;;;0.20;;
12425;SDS011;6277;49.824;9.562;2023-12-20T01:02:54;0.30;;;0.20;;
12425;SDS011;6277;49.824;9.562;2023-12-20T01:05:20;0.20;;;0.20;;
12425;SDS011;6277;49.824;9.562;2023-12-20T01:07:48;0.50;;;0.40;;
12425;SDS011;6277;49.824;9.562;2023-12-20T01:10:14;0.28;;;0.20;;
12425;SDS011;6277;49.824;9.562;2023-12-20T01:12:39;0.20;;;0.20;;
12425;SDS011;6277;49.824;9.562;2023-12-20T01:15:05;0.30;;;0.20;;
12425;SDS011;6277;49.824;9.562;2023-12-20T01:17:31;0.15;;;0.10;;
12425;SDS011;6277;49.824;9.562;2023-12-20T01:19:57;0.40;;;0.20;;
12425;SDS011;6277;49.824;9.562;2023-12-20T01:22:23;0.63;;;0.30;;
12425;SDS011;6277;49.824;9.562;2023-12-20T01:24:48;0.30;;;0.25;;
12425;SDS011;6277;49.824;9.562;2023-12-20T01:27:14;0.40;;;0.30;;
12425;SDS011;6277;49.824;9.562;2023-12-20T01:29:39;0.28;;;0.20;;
12425;SDS011;6277;49.824;9.562;2023-12-20T01:32:05;0.10;;;0.10;;
12425;SDS011;6277;49.824;9.562;2023-12-20T01:34:31;0.20;;;0.20;;
12425;SDS011;6277;49.824;9.562;2023-12-20T01:36:57;0.20;;;0.13;;
12425;SDS011;6277;49.824;9.562;2023-12-20T01:39:22;0.57;;;0.30;;
12425;SDS011;6277;49.824;9.562;2023-12-20T01:41:48;0.57;;;0.20;;
12425;SDS011;6277;49.824;9.562;2023-12-20T01:44:13;0.20;;;0.20;;
12425;SDS011;6277;49.824;9.562;2023-12-20T01:46:39;0.30;;;0.30;;
12425;SDS011;6277;49.824;9.562;2023-12-20T01:49:05;0.30;;;0.20;;
12425;SDS011;6277;49.824;9.562;2023-12-20T01:51:30;0.40;;;0.30;;
12425;SDS011;6277;49.824;9.562;2023-12-20T01:53:57;0.40;;;0.32;;
12425;SDS011;6277;49.824;9.562;2023-12-20T01:56:23;1.17;;;0.30;;
12425;SDS011;6277;49.824;9.562;2023-12-20T01:58:50;0.30;;;0.20;;
12425;SDS011;6277;49.824;9.562;2023-12-20T02:01:15;0.20;;;0.20;;
12425;SDS011;6277;49.824;9.562;2023-12-20T02:03:41;0.22;;;0.22;;
12425;SDS011;6277;49.824;9.562;2023-12-20T02:06:07;0.40;;;0.30;;
12425;SDS011;6277;49.824;9.562;2023-12-20T02:08:34;0.25;;;0.20;;
12425;SDS011;6277;49.824;9.562;2023-12-20T02:11:00;0.28;;;0.25;;
12425;SDS011;6277;49.824;9.562;2023-12-20T02:13:26;0.40;;;0.30;;
12425;SDS011;6277;49.824;9.562;2023-12-20T02:15:51;0.20;;;0.20;;
12425;SDS011;6277;49.824;9.562;2023-12-20T02:18:17;0.32;;;0.28;;
12425;SDS011;6277;49.824;9.562;2023-12-20T02:20:43;0.30;;;0.22;;
12425;SDS011;6277;49.824;9.562;2023-12-20T02:23:08;0.30;;;0.20;;
12425;SDS011;6277;49.824;9.562;2023-12-20T02:25:34;0.70;;;0.20;;
12425;SDS011;6277;49.824;9.562;2023-12-20T02:28:00;0.90;;;0.20;;
12425;SDS011;6277;49.824;9.562;2023-12-20T02:30:27;0.30;;;0.20;;
12425;SDS011;6277;49.824;9.562;2023-12-20T02:32:53;0.20;;;0.20;;
12425;SDS011;6277;49.824;9.562;2023-12-20T02:35:19;0.82;;;0.30;;
12425;SDS011;6277;49.824;9.562;2023-12-20T02:37:44;0.20;;;0.20;;
12425;SDS011;6277;49.824;9.562;2023-12-20T02:40:10;0.20;;;0.20;;
12425;SDS011;6277;49.824;9.562;2023-12-20T02:42:35;0.20;;;0.20;;
12425;SDS011;6277;49.824;9.562;2023-12-20T02:45:01;0.20;;;0.20;;
12425;SDS011;6277;49.824;9.562;2023-12-20T02:47:27;0.22;;;0.20;;
12425;SDS011;6277;49.824;9.562;2023-12-20T02:49:54;0.22;;;0.20;;
12425;SDS011;6277;49.824;9.562;2023-12-20T02:52:19;0.40;;;0.20;;
12425;SDS011;6277;49.824;9.562;2023-12-20T02:54:45;0.28;;;0.20;;
12425;SDS011;6277;49.824;9.562;2023-12-20T02:57:10;0.38;;;0.35;;
12425;SDS011;6277;49.824;9.562;2023-12-20T02:59:36;0.22;;;0.20;;
12425;SDS011;6277;49.824;9.562;2023-12-20T03:02:02;1.23;;;0.30;;
12425;SDS011;6277;49.824;9.562;2023-12-20T03:04:27;0.20;;;0.20;;
12425;SDS011;6277;49.824;9.562;2023-12-20T03:06:53;0.10;;;0.10;;
12425;SDS011;6277;49.824;9.562;2023-12-20T03:09:18;0.20;;;0.20;;
12425;SDS011;6277;49.824;9.562;2023-12-20T03:11:44;0.10;;;0.10;;
12425;SDS011;6277;49.824;9.562;2023-12-20T03:14:09;0.28;;;0.20;;
12425;SDS011;6277;49.824;9.562;2023-12-20T03:16:35;0.20;;;0.20;;
12425;SDS011;6277;49.824;9.562;2023-12-20T03:19:00;0.52;;;0.30;;
12425;SDS011;6277;49.824;9.562;2023-12-20T03:21:26;0.55;;;0.30;;
12425;SDS011;6277;49.824;9.562;2023-12-20T03:23:51;0.20;;;0.20;;
12425;SDS011;6277;49.824;9.562;2023-12-20T03:26:17;0.20;;;0.20;;
12425;SDS011;6277;49.824;9.562;2023-12-20T03:28:42;0.20;;;0.20;;
12425;SDS011;6277;49.824;9.562;2023-12-20T03:31:09;0.20;;;0.20;;
12425;SDS011;6277;49.824;9.562;2023-12-20T03:33:35;1.08;;;0.30;;
12425;SDS011;6277;49.824;9.562;2023-12-20T03:36:00;0.22;;;0.20;;
12425;SDS011;6277;49.824;9.562;2023-12-20T03:38:26;0.47;;;0.30;;
12425;SDS011;6277;49.824;9.562;2023-12-20T03:40:51;0.40;;;0.30;;
12425;SDS011;6277;49.824;9.562;2023-12-20T03:43:17;0.40;;;0.20;;
12425;SDS011;6277;49.824;9.562;2023-12-20T03:45:42;0.30;;;0.20;;
12425;SDS011;6277;49.824;9.562;2023-12-20T03:48:08;1.90;;;0.30;;
12425;SDS011;6277;49.824;9.562;2023-12-20T03:50:34;0.75;;;0.30;;
12425;SDS011;6277;49.824;9.562;2023-12-20T03:52:59;0.20;;;0.20;;
12425;SDS011;6277;49.824;9.562;2023-12-20T03:55:25;0.30;;;0.20;;
12425;SDS011;6277;49.824;9.562;2023-12-20T03:57:50;0.40;;;0.40;;
12425;SDS011;6277;49.824;9.562;2023-12-20T04:00:16;0.20;;;0.20;;
12425;SDS011;6277;49.824;9.562;2023-12-20T04:02:42;0.30;;;0.30;;
12425;SDS011;6277;49.824;9.562;2023-12-20T04:05:08;0.20;;;0.20;;
12425;SDS011;6277;49.824;9.562;2023-12-20T04:07:34;0.20;;;0.20;;
12425;SDS011;6277;49.824;9.562;2023-12-20T04:10:00;0.55;;;0.20;;
12425;SDS011;6277;49.824;9.562;2023-12-20T04:12:29;0.55;;;0.30;;
12425;SDS011;6277;49.824;9.562;2023-12-20T04:14:56;0.20;;;0.20;;
12425;SDS011;6277;49.824;9.562;2023-12-20T04:17:22;0.70;;;0.20;;
12425;SDS011;6277;49.824;9.562;2023-12-20T04:19:48;0.85;;;0.40;;
12425;SDS011;6277;49.824;9.562;2023-12-20T04:22:14;0.20;;;0.20;;
12425;SDS011;6277;49.824;9.562;2023-12-20T04:24:39;0.20;;;0.20;;
12425;SDS011;6277;49.824;9.562;2023-12-20T04:27:07;0.32;;;0.30;;
12425;SDS011;6277;49.824;9.562;2023-12-20T04:29:33;0.40;;;0.30;;
12425;SDS011;6277;49.824;9.562;2023-12-20T04:31:58;1.55;;;0.30;;
12425;SDS011;6277;49.824;9.562;2023-12-20T04:34:24;0.30;;;0.22;;
12425;SDS011;6277;49.824;9.562;2023-12-20T04:36:49;1.08;;;0.43;;
12425;SDS011;6277;49.824;9.562;2023-12-20T04:39:15;0.32;;;0.30;;
12425;SDS011;6277;49.824;9.562;2023-12-20T04:41:41;0.30;;;0.30;;
12425;SDS011;6277;49.824;9.562;2023-12-20T04:44:06;0.40;;;0.40;;
12425;SDS011;6277;49.824;9.562;2023-12-20T04:46:32;0.63;;;0.30;;
12425;SDS011;6277;49.824;9.562;2023-12-20T04:48:57;0.30;;;0.30;;
12425;SDS011;6277;49.824;9.562;2023-12-20T04:51:23;0.30;;;0.30;;
12425;SDS011;6277;49.824;9.562;2023-12-20T04:53:48;0.80;;;0.40;;
12425;SDS011;6277;49.824;9.562;2023-12-20T04:56:14;0.80;;;0.30;;
12425;SDS011;6277;49.824;9.562;2023-12-20T04:58:40;0.50;;;0.40;;
12425;SDS011;6277;49.824;9.562;2023-12-20T05:01:05;0.52;;;0.43;;
12425;SDS011;6277;49.824;9.562;2023-12-20T05:03:32;0.63;;;0.30;;
12425;SDS011;6277;49.824;9.562;2023-12-20T05:05:57;0.30;;;0.30;;
12425;SDS011;6277;49.824;9.562;2023-12-20T05:08:23;0.30;;;0.30;;
12425;SDS011;6277;49.824;9.562;2023-12-20T05:10:48;0.63;;;0.40;;
12425;SDS011;6277;49.824;9.562;2023-12-20T05:13:14;1.20;;;0.35;;
12425;SDS011;6277;49.824;9.562;2023-12-20T05:15:40;0.40;;;0.40;;
12425;SDS011;6277;49.824;9.562;2023-12-20T05:18:06;0.30;;;0.30;;
12425;SDS011;6277;49.824;9.562;2023-12-20T05:20:31;0.40;;;0.40;;
12425;SDS011;6277;49.824;9.562;2023-12-20T05:22:57;0.40;;;0.40;;
12425;SDS011;6277;49.824;9.562;2023-12-20T05:25:22;0.50;;;0.38;;
12425;SDS011;6277;49.824;9.562;2023-12-20T05:27:48;0.38;;;0.38;;
12425;SDS011;6277;49.824;9.562;2023-12-20T05:30:13;0.57;;;0.30;;
12425;SDS011;6277;49.824;9.562;2023-12-20T05:32:39;0.40;;;0.40;;
12425;SDS011;6277;49.824;9.562;2023-12-20T05:35:05;0.35;;;0.30;;
12425;SDS011;6277;49.824;9.562;2023-12-20T05:37:31;0.90;;;0.50;;
12425;SDS011;6277;49.824;9.562;2023-12-20T05:39:56;0.60;;;0.40;;
12425;SDS011;6277;49.824;9.562;2023-12-20T05:42:22;1.40;;;0.40;;
12425;SDS011;6277;49.824;9.562;2023-12-20T05:44:47;0.60;;;0.50;;
12425;SDS011;6277;49.824;9.562;2023-12-20T05:47:13;0.43;;;0.43;;
12425;SDS011;6277;49.824;9.562;2023-12-20T05:49:38;0.77;;;0.50;;
12425;SDS011;6277;49.824;9.562;2023-12-20T05:52:04;0.82;;;0.57;;
12425;SDS011;6277;49.824;9.562;2023-12-20T05:54:29;0.47;;;0.47;;
12425;SDS011;6277;49.824;9.562;2023-12-20T05:56:55;1.23;;;0.70;;
12425;SDS011;6277;49.824;9.562;2023-12-20T05:59:21;0.70;;;0.60;;
12425;SDS011;6277;49.824;9.562;2023-12-20T06:01:46;0.60;;;0.60;;
12425;SDS011;6277;49.824;9.562;2023-12-20T06:04:12;1.27;;;0.70;;
12425;SDS011;6277;49.824;9.562;2023-12-20T06:06:41;0.60;;;0.60;;
12425;SDS011;6277;49.824;9.562;2023-12-20T06:09:07;1.13;;;0.73;;
12425;SDS011;6277;49.824;9.562;2023-12-20T06:11:32;0.90;;;0.80;;
12425;SDS011;6277;49.824;9.562;2023-12-20T06:13:58;1.30;;;0.90;;
12425;SDS011;6277;49.824;9.562;2023-12-20T06:16:23;1.33;;;0.93;;
12425;SDS011;6277;49.824;9.562;2023-12-20T06:18:49;1.15;;;0.90;;
12425;SDS011;6277;49.824;9.562;2023-12-20T06:21:14;1.45;;;1.00;;
12425;SDS011;6277;49.824;9.562;2023-12-20T06:23:40;1.33;;;0.88;;
12425;SDS011;6277;49.824;9.562;2023-12-20T06:26:06;2.03;;;0.90;;
12425;SDS011;6277;49.824;9.562;2023-12-20T06:28:32;1.20;;;1.02;;
12425;SDS011;6277;49.824;9.562;2023-12-20T06:30:57;0.90;;;0.90;;
12425;SDS011;6277;49.824;9.562;2023-12-20T06:33:23;1.20;;;0.80;;
12425;SDS011;6277;49.824;9.562;2023-12-20T06:35:49;2.47;;;0.98;;
12425;SDS011;6277;49.824;9.562;2023-12-20T06:38:15;1.20;;;0.90;;
12425;SDS011;6277;49.824;9.562;2023-12-20T06:40:40;1.45;;;0.98;;
12425;SDS011;6277;49.824;9.562;2023-12-20T06:43:07;1.83;;;1.02;;
12425;SDS011;6277;49.824;9.562;2023-12-20T06:45:33;1.90;;;1.00;;
12425;SDS011;6277;49.824;9.562;2023-12-20T06:47:58;2.92;;;1.35;;
12425;SDS011;6277;49.824;9.562;2023-12-20T06:50:24;1.58;;;1.20;;
12425;SDS011;6277;49.824;9.562;2023-12-20T06:52:49;2.92;;;1.20;;
12425;SDS011;6277;49.824;9.562;2023-12-20T06:55:15;2.08;;;1.10;;
12425;SDS011;6277;49.824;9.562;2023-12-20T06:57:42;1.83;;;1.30;;
12425;SDS011;6277;49.824;9.562;2023-12-20T07:00:08;3.65;;;1.40;;
12425;SDS011;6277;49.824;9.562;2023-12-20T07:02:35;1.90;;;1.23;;
12425;SDS011;6277;49.824;9.562;2023-12-20T07:05:01;2.63;;;1.38;;
12425;SDS011;6277;49.824;9.562;2023-12-20T07:07:26;3.65;;;1.40;;
12425;SDS011;6277;49.824;9.562;2023-12-20T07:09:52;2.00;;;1.17;;
12425;SDS011;6277;49.824;9.562;2023-12-20T07:12:17;2.90;;;1.20;;
12425;SDS011;6277;49.824;9.562;2023-12-20T07:14:46;2.47;;;1.15;;
12425;SDS011;6277;49.824;9.562;2023-12-20T07:17:12;3.03;;;1.10;;
12425;SDS011;6277;49.824;9.562;2023-12-20T07:19:39;3.33;;;1.25;;
12425;SDS011;6277;49.824;9.562;2023-12-20T07:22:05;2.60;;;1.20;;
12425;SDS011;6277;49.824;9.562;2023-12-20T07:24:31;2.60;;;1.38;;
12425;SDS011;6277;49.824;9.562;2023-12-20T07:26:57;1.95;;;1.10;;
12425;SDS011;6277;49.824;9.562;2023-12-20T07:29:22;1.90;;;1.00;;
12425;SDS011;6277;49.824;9.562;2023-12-20T07:31:48;1.90;;;1.00;;
12425;SDS011;6277;49.824;9.562;2023-12-20T07:34:13;1.73;;;1.00;;
12425;SDS011;6277;49.824;9.562;2023-12-20T07:36:39;2.47;;;0.90;;
12425;SDS011;6277;49.824;9.562;2023-12-20T07:39:04;2.90;;;0.90;;
12425;SDS011;6277;49.824;9.562;2023-12-20T07:41:30;2.70;;;1.17;;
12425;SDS011;6277;49.824;9.562;2023-12-20T07:43:55;2.53;;;1.05;;
12425;SDS011;6277;49.824;9.562;2023-12-20T07:46:21;3.00;;;1.10;;
12425;SDS011;6277;49.824;9.562;2023-12-20T07:48:48;3.65;;;1.00;;
12425;SDS011;6277;49.824;9.562;2023-12-20T07:51:14;1.55;;;0.98;;
12425;SDS011;6277;49.824;9.562;2023-12-20T07:53:39;4.90;;;0.90;;
12425;SDS011;6277;49.824;9.562;2023-12-20T07:56:14;3.08;;;1.05;;
12425;SDS011;6277;49.824;9.562;2023-12-20T07:58:43;2.25;;;0.90;;
12425;SDS011;6277;49.824;9.562;2023-12-20T08:01:10;2.45;;;1.08;;
12425;SDS011;6277;49.824;9.562;2023-12-20T08:03:36;4.30;;;1.17;;
12425;SDS011;6277;49.824;9.562;2023-12-20T08:06:02;3.50;;;1.63;;
12425;SDS011;6277;49.824;9.562;2023-12-20T08:08:28;4.57;;;0.90;;
12425;SDS011;6277;49.824;9.562;2023-12-20T08:10:54;3.25;;;0.90;;
12425;SDS011;6277;49.824;9.562;2023-12-20T08:13:19;1.90;;;0.70;;
12425;SDS011;6277;49.824;9.562;2023-12-20T08:15:50;1.73;;;0.88;;
12425;SDS011;6277;49.824;9.562;2023-12-20T08:18:15;2.95;;;0.85;;
12425;SDS011;6277;49.824;9.562;2023-12-20T08:20:41;3.10;;;1.00;;
12425;SDS011;6277;49.824;9.562;2023-12-20T08:23:06;1.90;;;0.80;;
12425;SDS011;6277;49.824;9.562;2023-12-20T08:25:31;1.77;;;0.70;;
12425;SDS011;6277;49.824;9.562;2023-12-20T08:27:57;4.00;;;1.00;;
12425;SDS011;6277;49.824;9.562;2023-12-20T08:30:22;2.97;;;0.90;;
12425;SDS011;6277;49.824;9.562;2023-12-20T08:32:48;1.67;;;0.93;;
12425;SDS011;6277;49.824;9.562;2023-12-20T08:35:14;3.58;;;0.98;;
12425;SDS011;6277;49.824;9.562;2023-12-20T08:37:39;2.53;;;0.88;;
12425;SDS011;6277;49.824;9.562;2023-12-20T08:40:05;1.25;;;0.70;;
12425;SDS011;6277;49.824;9.562;2023-12-20T08:42:31;2.78;;;1.00;;
12425;SDS011;6277;49.824;9.562;2023-12-20T08:44:57;1.98;;;0.80;;
12425;SDS011;6277;49.824;9.562;2023-12-20T08:47:26;2.90;;;0.88;;
12425;SDS011;6277;49.824;9.562;2023-12-20T08:49:52;3.08;;;0.90;;
12425;SDS011;6277;49.824;9.562;2023-12-20T08:52:21;2.85;;;0.93;;
12425;SDS011;6277;49.824;9.562;2023-12-20T08:54:48;2.88;;;1.02;;
12425;SDS011;6277;49.824;9.562;2023-12-20T08:57:16;3.22;;;0.60;;
12425;SDS011;6277;49.824;9.562;2023-12-20T08:59:43;3.28;;;0.80;;
12425;SDS011;6277;49.824;9.562;2023-12-20T09:02:09;3.75;;;0.98;;
12425;SDS011;6277;49.824;9.562;2023-12-20T09:04:34;3.35;;;1.15;;
12425;SDS011;6277;49.824;9.562;2023-12-20T09:07:00;4.70;;;1.00;;
12425;SDS011;6277;49.824;9.562;2023-12-20T09:09:26;3.58;;;0.90;;
12425;SDS011;6277;49.824;9.562;2023-12-20T09:11:51;1.80;;;0.80;;
12425;SDS011;6277;49.824;9.562;2023-12-20T09:14:17;1.42;;;0.50;;
12425;SDS011;6277;49.824;9.562;2023-12-20T09:16:42;3.65;;;0.80;;
12425;SDS011;6277;49.824;9.562;2023-12-20T09:19:08;4.85;;;1.00;;
12425;SDS011;6277;49.824;9.562;2023-12-20T09:21:34;4.13;;;0.80;;
12425;SDS011;6277;49.824;9.562;2023-12-20T09:23:59;4.07;;;1.13;;
12425;SDS011;6277;49.824;9.562;2023-12-20T09:26:25;2.83;;;0.90;;
12425;SDS011;6277;49.824;9.562;2023-12-20T09:28:50;3.33;;;0.95;;
12425;SDS011;6277;49.824;9.562;2023-12-20T09:31:16;4.20;;;0.95;;
12425;SDS011;6277;49.824;9.562;2023-12-20T09:33:41;3.38;;;1.10;;
12425;SDS011;6277;49.824;9.562;2023-12-20T09:36:07;2.45;;;0.77;;
12425;SDS011;6277;49.824;9.562;2023-12-20T09:38:32;3.35;;;0.90;;
12425;SDS011;6277;49.824;9.562;2023-12-20T09:40:58;3.35;;;0.93;;
12425;SDS011;6277;49.824;9.562;2023-12-20T09:43:24;3.00;;;0.88;;
12425;SDS011;6277;49.824;9.562;2023-12-20T09:45:52;3.25;;;1.15;;
12425;SDS011;6277;49.824;9.562;2023-12-20T09:48:18;4.22;;;0.93;;
12425;SDS011;6277;49.824;9.562;2023-12-20T09:50:45;4.03;;;0.90;;
12425;SDS011;6277;49.824;9.562;2023-12-20T09:53:12;2.63;;;0.93;;
12425;SDS011;6277;49.824;9.562;2023-12-20T09:55:41;3.70;;;0.80;;
12425;SDS011;6277;49.824;9.562;2023-12-20T09:58:07;2.83;;;0.80;;
12425;SDS011;6277;49.824;9.562;2023-12-20T10:00:33;4.18;;;1.08;;
12425;SDS011;6277;49.824;9.562;2023-12-20T10:03:00;3.95;;;0.90;;
12425;SDS011;6277;49.824;9.562;2023-12-20T10:05:27;2.78;;;1.00;;
12425;SDS011;6277;49.824;9.562;2023-12-20T10:07:53;1.95;;;0.80;;
12425;SDS011;6277;49.824;9.562;2023-12-20T10:10:19;4.32;;;1.20;;
12425;SDS011;6277;49.824;9.562;2023-12-20T10:13:04;2.83;;;0.85;;
12425;SDS011;6277;49.824;9.562;2023-12-20T10:15:32;2.28;;;1.10;;
12425;SDS011;6277;49.824;9.562;2023-12-20T10:17:58;2.15;;;0.90;;
12425;SDS011;6277;49.824;9.562;2023-12-20T10:20:24;6.80;;;1.33;;
12425;SDS011;6277;49.824;9.562;2023-12-20T10:22:51;2.92;;;0.82;;
12425;SDS011;6277;49.824;9.562;2023-12-20T10:25:18;6.53;;;1.17;;
12425;SDS011;6277;49.824;9.562;2023-12-20T10:27:45;3.30;;;1.00;;
12425;SDS011;6277;49.824;9.562;2023-12-20T10:30:10;4.47;;;1.02;;
12425;SDS011;6277;49.824;9.562;2023-12-20T10:32:36;4.03;;;1.15;;
12425;SDS011;6277;49.824;9.562;2023-12-20T10:35:03;3.05;;;1.05;;
12425;SDS011;6277;49.824;9.562;2023-12-20T10:37:29;2.25;;;0.75;;
12425;SDS011;6277;49.824;9.562;2023-12-20T10:39:55;1.85;;;0.88;;
12425;SDS011;6277;49.824;9.562;2023-12-20T10:42:30;3.75;;;1.30;;
12425;SDS011;6277;49.824;9.562;2023-12-20T10:44:56;2.50;;;1.20;;
12425;SDS011;6277;49.824;9.562;2023-12-20T10:47:24;3.08;;;1.10;;
12425;SDS011;6277;49.824;9.562;2023-12-20T10:49:51;1.38;;;0.82;;
12425;SDS011;6277;49.824;9.562;2023-12-20T10:52:18;3.60;;;1.20;;
12425;SDS011;6277;49.824;9.562;2023-12-20T10:54:47;2.42;;;0.90;;
12425;SDS011;6277;49.824;9.562;2023-12-20T10:57:13;2.70;;;0.98;;
12425;SDS011;6277;49.824;9.562;2023-12-20T10:59:42;1.52;;;0.82;;
12425;SDS011;6277;49.824;9.562;2023-12-20T11:02:10;3.50;;;1.15;;
12425;SDS011;6277;49.824;9.562;2023-12-20T11:04:43;4.05;;;0.85;;
12425;SDS011;6277;49.824;9.562;2023-12-20T11:07:17;4.10;;;1.15;;
12425;SDS011;6277;49.824;9.562;2023-12-20T11:09:51;2.40;;;1.02;;
12425;SDS011;6277;49.824;9.562;2023-12-20T11:12:36;3.90;;;1.23;;
12425;SDS011;6277;49.824;9.562;2023-12-20T11:15:09;2.72;;;1.15;;
12425;SDS011;6277;49.824;9.562;2023-12-20T11:17:35;4.15;;;1.02;;
12425;SDS011;6277;49.824;9.562;2023-12-20T11:20:04;3.40;;;1.63;;
12425;SDS011;6277;49.824;9.562;2023-12-20T11:22:31;3.45;;;1.23;;
12425;SDS011;6277;49.824;9.562;2023-12-20T11:24:58;3.90;;;1.17;;
12425;SDS011;6277;49.824;9.562;2023-12-20T11:27:33;3.63;;;1.35;;
12425;SDS011;6277;49.824;9.562;2023-12-20T11:29:59;4.15;;;1.30;;
12425;SDS011;6277;49.824;9.562;2023-12-20T11:32:28;4.78;;;1.40;;
12425;SDS011;6277;49.824;9.562;2023-12-20T11:35:39;4.38;;;1.42;;
12425;SDS011;6277;49.824;9.562;2023-12-20T11:37:39;4.00;;;1.23;;
12425;SDS011;6277;49.824;9.562;2023-12-20T11:40:08;5.78;;;1.00;;
12425;SDS011;6277;49.824;9.562;2023-12-20T11:42:40;3.92;;;1.50;;
12425;SDS011;6277;49.824;9.562;2023-12-20T11:47:35;4.95;;;1.45;;
12425;SDS011;6277;49.824;9.562;2023-12-20T11:50:01;2.78;;;1.10;;
12425;SDS011;6277;49.824;9.562;2023-12-20T11:52:29;3.42;;;1.20;;
12425;SDS011;6277;49.824;9.562;2023-12-20T11:54:55;4.53;;;1.10;;
12425;SDS011;6277;49.824;9.562;2023-12-20T11:57:20;3.05;;;1.10;;
12425;SDS011;6277;49.824;9.562;2023-12-20T11:59:46;2.42;;;1.10;;
12425;SDS011;6277;49.824;9.562;2023-12-20T12:02:12;2.15;;;0.90;;
12425;SDS011;6277;49.824;9.562;2023-12-20T12:04:38;2.78;;;1.08;;
12425;SDS011;6277;49.824;9.562;2023-12-20T12:07:06;4.22;;;1.10;;
12425;SDS011;6277;49.824;9.562;2023-12-20T12:09:32;6.38;;;1.48;;
12425;SDS011;6277;49.824;9.562;2023-12-20T12:11:58;3.95;;;1.23;;
12425;SDS011;6277;49.824;9.562;2023-12-20T12:14:24;3.30;;;1.00;;
12425;SDS011;6277;49.824;9.562;2023-12-20T12:16:49;6.43;;;0.98;;
12425;SDS011;6277;49.824;9.562;2023-12-20T12:19:22;3.53;;;0.70;;
12425;SDS011;6277;49.824;9.562;2023-12-20T12:21:49;4.78;;;1.42;;
12425;SDS011;6277;49.824;9.562;2023-12-20T12:24:15;5.93;;;1.40;;
12425;SDS011;6277;49.824;9.562;2023-12-20T12:26:49;4.72;;;1.55;;
12425;SDS011;6277;49.824;9.562;2023-12-20T12:29:18;5.50;;;1.17;;
12425;SDS011;6277;49.824;9.562;2023-12-20T12:31:43;5.82;;;1.30;;
12425;SDS011;6277;49.824;9.562;2023-12-20T12:34:09;3.33;;;1.02;;
12425;SDS011;6277;49.824;9.562;2023-12-20T12:36:35;3.95;;;1.23;;
12425;SDS011;6277;49.824;9.562;2023-12-20T12:39:03;4.97;;;1.00;;
12425;SDS011;6277;49.824;9.562;2023-12-20T12:41:30;2.80;;;1.20;;
12425;SDS011;6277;49.824;9.562;2023-12-20T12:43:55;5.50;;;1.23;;
12425;SDS011;6277;49.824;9.562;2023-12-20T12:46:21;3.72;;;0.90;;
12425;SDS011;6277;49.824;9.562;2023-12-20T12:48:46;6.18;;;1.30;;
12425;SDS011;6277;49.824;9.562;2023-12-20T12:51:12;2.55;;;1.08;;
12425;SDS011;6277;49.824;9.562;2023-12-20T12:53:38;4.57;;;1.05;;
12425;SDS011;6277;49.824;9.562;2023-12-20T12:56:04;5.00;;;1.30;;
12425;SDS011;6277;49.824;9.562;2023-12-20T12:58:30;5.22;;;1.33;;
12425;SDS011;6277;49.824;9.562;2023-12-20T13:00:56;4.53;;;1.30;;
12425;SDS011;6277;49.824;9.562;2023-12-20T13:03:22;3.67;;;1.20;;
12425;SDS011;6277;49.824;9.562;2023-12-20T13:05:47;11.65;;;1.50;;
12425;SDS011;6277;49.824;9.562;2023-12-20T13:08:13;4.20;;;1.40;;
12425;SDS011;6277;49.824;9.562;2023-12-20T13:10:39;5.28;;;1.20;;
12425;SDS011;6277;49.824;9.562;2023-12-20T13:13:05;4.45;;;1.00;;
12425;SDS011;6277;49.824;9.562;2023-12-20T13:15:31;6.75;;;1.30;;
12425;SDS011;6277;49.824;9.562;2023-12-20T13:17:56;4.68;;;1.30;;
12425;SDS011;6277;49.824;9.562;2023-12-20T13:20:22;4.72;;;1.30;;
12425;SDS011;6277;49.824;9.562;2023-12-20T13:22:48;4.47;;;1.17;;
12425;SDS011;6277;49.824;9.562;2023-12-20T13:25:13;4.20;;;1.23;;
12425;SDS011;6277;49.824;9.562;2023-12-20T13:27:39;5.63;;;1.52;;
12425;SDS011;6277;49.824;9.562;2023-12-20T13:30:06;4.85;;;1.33;;
12425;SDS011;6277;49.824;9.562;2023-12-20T13:32:32;3.20;;;1.00;;
12425;SDS011;6277;49.824;9.562;2023-12-20T13:34:57;4.93;;;1.10;;
12425;SDS011;6277;49.824;9.562;2023-12-20T13:37:23;2.97;;;0.88;;
12425;SDS011;6277;49.824;9.562;2023-12-20T13:39:48;4.55;;;1.15;;
12425;SDS011;6277;49.824;9.562;2023-12-20T13:42:14;5.22;;;1.50;;
12425;SDS011;6277;49.824;9.562;2023-12-20T13:44:40;3.13;;;1.20;;
12425;SDS011;6277;49.824;9.562;2023-12-20T13:47:05;7.00;;;1.58;;
12425;SDS011;6277;49.824;9.562;2023-12-20T13:49:31;5.55;;;1.25;;
12425;SDS011;6277;49.824;9.562;2023-12-20T13:51:57;3.22;;;1.08;;
12425;SDS011;6277;49.824;9.562;2023-12-20T13:54:23;2.83;;;1.02;;
12425;SDS011;6277;49.824;9.562;2023-12-20T13:56:49;4.13;;;1.20;;
12425;SDS011;6277;49.824;9.562;2023-12-20T13:59:14;3.65;;;0.90;;
12425;SDS011;6277;49.824;9.562;2023-12-20T14:01:40;3.28;;;1.17;;
12425;SDS011;6277;49.824;9.562;2023-12-20T14:04:06;3.50;;;1.70;;
12425;SDS011;6277;49.824;9.562;2023-12-20T14:06:32;4.88;;;1.42;;
12425;SDS011;6277;49.824;9.562;2023-12-20T14:08:58;3.22;;;1.38;;
12425;SDS011;6277;49.824;9.562;2023-12-20T14:11:25;2.80;;;1.13;;
12425;SDS011;6277;49.824;9.562;2023-12-20T14:13:51;4.68;;;1.27;;
12425;SDS011;6277;49.824;9.562;2023-12-20T14:16:16;4.18;;;1.20;;
12425;SDS011;6277;49.824;9.562;2023-12-20T14:18:42;3.83;;;1.42;;
12425;SDS011;6277;49.824;9.562;2023-12-20T14:21:07;3.42;;;1.52;;
12425;SDS011;6277;49.824;9.562;2023-12-20T14:23:33;4.63;;;1.40;;
12425;SDS011;6277;49.824;9.562;2023-12-20T14:25:59;5.03;;;1.17;;
12425;SDS011;6277;49.824;9.562;2023-12-20T14:28:25;3.65;;;1.30;;
12425;SDS011;6277;49.824;9.562;2023-12-20T14:30:50;3.28;;;0.95;;
12425;SDS011;6277;49.824;9.562;2023-12-20T14:33:16;4.47;;;1.30;;
12425;SDS011;6277;49.824;9.562;2023-12-20T14:35:41;4.40;;;1.40;;
12425;SDS011;6277;49.824;9.562;2023-12-20T14:38:09;3.53;;;1.33;;
12425;SDS011;6277;49.824;9.562;2023-12-20T14:40:35;3.70;;;1.30;;
12425;SDS011;6277;49.824;9.562;2023-12-20T14:43:00;4.55;;;1.52;;
12425;SDS011;6277;49.824;9.562;2023-12-20T14:45:29;3.63;;;1.40;;
12425;SDS011;6277;49.824;9.562;2023-12-20T14:47:54;3.97;;;1.50;;
12425;SDS011;6277;49.824;9.562;2023-12-20T14:50:20;4.75;;;1.30;;
12425;SDS011;6277;49.824;9.562;2023-12-20T14:52:46;3.33;;;1.17;;
12425;SDS011;6277;49.824;9.562;2023-12-20T14:55:12;4.63;;;1.45;;
12425;SDS011;6277;49.824;9.562;2023-12-20T14:57:38;6.30;;;1.70;;